createdAt,value
2018-11-28T00:00:31.966Z,20.92
2018-11-28T00:03:02.398Z,20.52
2018-11-28T00:05:31.025Z,20.55
2018-11-28T00:07:59.311Z,20.40
2018-11-28T00:10:27.081Z,21.27
2018-11-28T00:12:55.516Z,22.25
2018-11-28T00:15:23.257Z,19.50
2018-11-28T00:17:51.119Z,20.88
2018-11-28T00:20:21.369Z,21.35
2018-11-28T00:22:49.388Z,19.60
2018-11-28T00:25:17.617Z,21.15
2018-11-28T00:27:45.503Z,23.05
2018-11-28T00:30:14.511Z,20.80
2018-11-28T00:32:42.617Z,19.85
2018-11-28T00:35:12.688Z,21.07
2018-11-28T00:37:40.754Z,20.12
2018-11-28T00:40:10.210Z,19.20
2018-11-28T00:42:38.796Z,19.40
2018-11-28T00:45:09.516Z,21.75
2018-11-28T00:47:37.322Z,21.30
2018-11-28T00:50:09.079Z,20.70
2018-11-28T00:52:37.292Z,20.72
2018-11-28T00:55:06.748Z,20.85
2018-11-28T00:57:34.468Z,21.52
2018-11-28T01:00:02.335Z,21.17
2018-11-28T01:02:29.957Z,21.77
2018-11-28T01:04:57.652Z,19.35
2018-11-28T01:07:25.365Z,22.73
2018-11-28T01:09:53.055Z,23.57
2018-11-28T01:12:21.189Z,21.27
2018-11-28T01:14:48.906Z,21.05
2018-11-28T01:17:16.699Z,19.55
2018-11-28T01:19:44.496Z,21.15
2018-11-28T01:22:12.184Z,20.52
2018-11-28T01:24:39.826Z,23.30
2018-11-28T01:27:07.590Z,21.10
2018-11-28T01:29:35.227Z,22.45
2018-11-28T01:32:04.226Z,20.92
2018-11-28T01:34:32.439Z,23.98
2018-11-28T01:37:00.242Z,22.20
2018-11-28T01:39:28.008Z,21.25
2018-11-28T01:41:55.599Z,21.62
2018-11-28T01:44:23.271Z,20.95
2018-11-28T01:46:50.961Z,20.95
2018-11-28T01:49:18.804Z,23.50
2018-11-28T01:51:46.387Z,20.10
2018-11-28T01:54:14.188Z,20.05
2018-11-28T01:56:41.861Z,20.45
2018-11-28T01:59:09.607Z,22.13
2018-11-28T02:01:38.534Z,20.90
2018-11-28T02:04:06.828Z,21.68
2018-11-28T02:06:34.620Z,20.80
2018-11-28T02:09:02.952Z,21.17
2018-11-28T02:11:30.607Z,20.35
2018-11-28T02:13:58.326Z,15.30
2018-11-28T02:16:27.164Z,19.95
2018-11-28T02:18:54.892Z,19.98
2018-11-28T02:21:22.647Z,20.82
2018-11-28T02:23:50.391Z,15.78
2018-11-28T02:26:17.991Z,21.77
2018-11-28T02:28:46.271Z,21.35
2018-11-28T02:31:14.488Z,21.10
2018-11-28T02:33:43.502Z,13.78
2018-11-28T02:36:11.745Z,20.50
2018-11-28T02:38:39.459Z,20.25
2018-11-28T02:41:07.880Z,21.52
2018-11-28T02:43:35.645Z,15.80
2018-11-28T02:46:14.716Z,21.40
2018-11-28T02:48:42.489Z,17.00
2018-11-28T02:51:10.480Z,21.00
2018-11-28T02:53:38.245Z,14.90
2018-11-28T02:56:06.052Z,20.45
2018-11-28T02:58:33.948Z,21.40
2018-11-28T03:01:02.367Z,20.08
2018-11-28T03:03:30.111Z,15.38
2018-11-28T03:05:58.050Z,21.15
2018-11-28T03:08:25.668Z,18.77
2018-11-28T03:10:53.440Z,12.80
2018-11-28T03:13:21.062Z,23.10
2018-11-28T03:15:48.870Z,17.80
2018-11-28T03:18:18.029Z,27.67
2018-11-28T03:20:45.785Z,21.82
2018-11-28T03:23:13.488Z,13.53
2018-11-28T03:25:41.218Z,14.35
2018-11-28T03:28:09.252Z,19.07
2018-11-28T03:30:36.805Z,14.75
2018-11-28T03:33:04.756Z,17.73
2018-11-28T03:35:32.351Z,13.88
2018-11-28T03:38:00.047Z,19.95
2018-11-28T03:42:57.261Z,21.95
2018-11-28T03:45:25.395Z,17.45
2018-11-28T03:47:53.035Z,16.77
2018-11-28T03:50:20.872Z,16.45
2018-11-28T03:52:48.723Z,22.30
2018-11-28T03:55:16.414Z,23.38
2018-11-28T03:57:45.463Z,19.15
2018-11-28T04:00:16.490Z,25.90
2018-11-28T04:02:44.116Z,23.77
2018-11-28T04:05:12.457Z,22.67
2018-11-28T04:07:40.341Z,22.65
2018-11-28T04:10:11.157Z,22.17
2018-11-28T04:12:39.639Z,24.80
2018-11-28T04:15:13.413Z,22.48
2018-11-28T04:17:41.056Z,21.10
2018-11-28T04:20:12.006Z,21.55
2018-11-28T04:22:40.224Z,23.65
2018-11-28T04:25:09.219Z,24.00
2018-11-28T04:27:36.907Z,20.43
2018-11-28T04:30:09.512Z,23.00
2018-11-28T04:32:37.906Z,23.27
2018-11-28T04:35:07.531Z,21.30
2018-11-28T04:37:35.099Z,21.55
2018-11-28T04:40:03.199Z,23.07
2018-11-28T04:42:30.965Z,22.42
2018-11-28T04:44:58.591Z,22.02
2018-11-28T04:47:26.241Z,22.60
2018-11-28T04:49:55.244Z,23.75
2018-11-28T04:52:23.626Z,22.73
2018-11-28T04:54:51.320Z,21.55
2018-11-28T04:57:19.023Z,16.05
2018-11-28T04:59:46.633Z,22.07
2018-11-28T05:02:14.293Z,21.37
2018-11-28T05:04:41.931Z,21.48
2018-11-28T05:07:25.808Z,21.82
2018-11-28T05:09:53.723Z,22.62
2018-11-28T05:12:21.768Z,22.95
2018-11-28T05:14:49.631Z,19.07
2018-11-28T05:17:17.953Z,22.80
2018-11-28T05:19:45.868Z,22.15
2018-11-28T05:22:13.764Z,20.50
2018-11-28T05:24:41.475Z,21.95
2018-11-28T05:27:09.530Z,23.57
2018-11-28T05:29:37.291Z,20.95
2018-11-28T05:32:06.158Z,23.12
2018-11-28T05:34:33.967Z,22.25
2018-11-28T05:37:01.628Z,21.30
2018-11-28T05:39:29.260Z,21.33
2018-11-28T05:41:57.456Z,20.40
2018-11-28T05:44:25.218Z,21.48
2018-11-28T05:46:53.500Z,16.80
2018-11-28T05:49:21.176Z,18.70
2018-11-28T05:51:49.493Z,18.17
2018-11-28T05:54:17.116Z,19.12
2018-11-28T05:56:44.738Z,16.32
2018-11-28T05:59:12.356Z,19.52
2018-11-28T06:01:40.612Z,18.70
2018-11-28T06:04:08.828Z,16.23
2018-11-28T06:06:36.490Z,19.32
2018-11-28T06:09:06.871Z,16.37
2018-11-28T06:11:34.641Z,15.20
2018-11-28T06:14:02.398Z,19.45
2018-11-28T06:16:30.401Z,16.97
2018-11-28T06:18:58.219Z,18.55
2018-11-28T06:21:26.044Z,14.87
2018-11-28T06:23:53.779Z,10.80
2018-11-28T06:26:21.930Z,20.02
2018-11-28T06:28:49.914Z,20.43
2018-11-28T06:31:18.180Z,20.65
2018-11-28T06:33:45.914Z,20.92
2018-11-28T06:36:13.619Z,21.75
2018-11-28T06:38:42.536Z,18.52
2018-11-28T06:41:10.565Z,20.08
2018-11-28T06:43:39.574Z,19.15
2018-11-28T06:46:07.225Z,19.77
2018-11-28T06:48:35.479Z,21.57
2018-11-28T06:51:03.179Z,20.02
2018-11-28T06:53:30.950Z,21.68
2018-11-28T06:55:58.803Z,22.00
2018-11-28T06:58:26.600Z,19.15
2018-11-28T07:00:54.980Z,21.23
2018-11-28T07:03:22.618Z,19.20
2018-11-28T07:05:51.095Z,19.42
2018-11-28T07:08:19.005Z,21.10
2018-11-28T07:10:48.795Z,20.37
2018-11-28T07:13:16.499Z,18.55
2018-11-28T07:15:44.157Z,15.60
2018-11-28T07:18:23.060Z,19.80
2018-11-28T07:20:51.581Z,18.55
2018-11-28T07:23:19.504Z,20.77
2018-11-28T07:25:47.284Z,19.12
2018-11-28T07:28:15.137Z,19.25
2018-11-28T07:30:42.756Z,17.67
2018-11-28T07:33:10.522Z,19.17
2018-11-28T07:35:42.483Z,20.27
2018-11-28T07:38:10.254Z,18.90
2018-11-28T07:40:40.001Z,19.27
2018-11-28T07:43:09.081Z,19.30
2018-11-28T07:45:38.327Z,16.25
2018-11-28T07:48:06.428Z,18.37
2018-11-28T07:50:34.081Z,18.92
2018-11-28T07:53:01.836Z,18.75
2018-11-28T07:55:30.162Z,16.07
2018-11-28T07:57:57.855Z,17.73
2018-11-28T08:00:25.497Z,19.25
2018-11-28T08:02:53.293Z,14.90
2018-11-28T08:05:21.094Z,16.60
2018-11-28T08:07:49.069Z,18.60
2018-11-28T08:10:21.179Z,16.52
2018-11-28T08:12:50.293Z,18.98
2018-11-28T08:15:18.021Z,11.08
2018-11-28T08:17:46.522Z,12.75
2018-11-28T08:20:14.863Z,13.75
2018-11-28T08:22:42.528Z,19.95
2018-11-28T08:25:13.583Z,17.20
2018-11-28T08:27:42.704Z,12.78
2018-11-28T08:30:20.538Z,17.27
2018-11-28T08:32:48.514Z,17.80
2018-11-28T08:35:16.338Z,17.62
2018-11-28T08:37:44.213Z,16.97
2018-11-28T08:40:13.311Z,18.60
2018-11-28T08:42:41.066Z,16.25
2018-11-28T08:45:11.944Z,16.20
2018-11-28T08:47:39.610Z,16.48
2018-11-28T08:50:10.991Z,16.67
2018-11-28T08:52:38.679Z,17.42
2018-11-28T08:55:07.870Z,16.50
2018-11-28T08:57:35.609Z,15.00
2018-11-28T09:00:05.657Z,16.90
2018-11-28T09:02:33.601Z,15.93
2018-11-28T09:05:01.299Z,15.93
2018-11-28T09:07:29.550Z,15.20
2018-11-28T09:09:57.516Z,17.15
2018-11-28T09:12:25.509Z,19.02
2018-11-28T09:14:53.220Z,16.10
2018-11-28T09:17:20.908Z,17.50
2018-11-28T09:19:48.541Z,16.20
2018-11-28T09:22:16.980Z,15.30
2018-11-28T09:24:44.955Z,16.30
2018-11-28T09:27:12.567Z,17.50
2018-11-28T09:29:40.261Z,15.63
2018-11-28T09:32:08.014Z,15.15
2018-11-28T09:34:35.686Z,12.75
2018-11-28T09:37:03.365Z,14.83
2018-11-28T09:39:31.805Z,17.23
2018-11-28T09:41:59.450Z,17.27
2018-11-28T09:44:27.577Z,14.83
2018-11-28T09:46:55.197Z,16.30
2018-11-28T09:49:22.886Z,15.08
2018-11-28T09:51:50.684Z,18.23
2018-11-28T09:54:18.328Z,12.40
2018-11-28T09:56:46.281Z,15.03
2018-11-28T09:59:14.032Z,9.48
2018-11-28T10:01:41.821Z,15.10
2018-11-28T10:04:09.520Z,14.70
2018-11-28T10:06:37.193Z,11.50
2018-11-28T10:09:06.987Z,14.40
2018-11-28T10:11:34.659Z,12.98
2018-11-28T10:14:02.526Z,13.13
2018-11-28T10:16:30.210Z,13.75
2018-11-28T10:18:57.899Z,13.70
2018-11-28T10:21:25.720Z,16.73
2018-11-28T10:23:53.429Z,12.78
2018-11-28T10:26:21.429Z,10.78
2018-11-28T10:28:49.148Z,12.55
2018-11-28T10:31:17.045Z,11.50
2018-11-28T10:33:44.841Z,16.62
2018-11-28T10:36:12.592Z,16.05
2018-11-28T10:38:41.150Z,9.63
2018-11-28T10:41:08.917Z,16.07
2018-11-28T10:43:36.603Z,14.15
2018-11-28T10:46:04.540Z,17.07
2018-11-28T10:48:32.434Z,11.60
2018-11-28T10:51:00.216Z,15.03
2018-11-28T10:53:27.922Z,14.35
2018-11-28T10:55:55.940Z,12.60
2018-11-28T10:58:23.688Z,12.70
2018-11-28T11:00:56.941Z,14.03
2018-11-28T11:03:30.440Z,13.98
2018-11-28T11:06:03.125Z,11.65
2018-11-28T11:08:36.556Z,13.13
2018-11-28T11:11:09.997Z,12.53
2018-11-28T11:13:42.011Z,9.15
2018-11-28T11:16:10.881Z,13.62
2018-11-28T11:18:39.187Z,12.40
2018-11-28T11:21:06.867Z,13.10
2018-11-28T11:23:34.997Z,12.20
2018-11-28T11:26:02.807Z,13.65
2018-11-28T11:28:30.460Z,10.98
2018-11-28T11:30:58.215Z,14.47
2018-11-28T11:33:25.878Z,12.00
2018-11-28T11:35:53.589Z,14.70
2018-11-28T11:38:22.745Z,14.18
2018-11-28T11:40:50.536Z,16.48
2018-11-28T11:43:18.472Z,14.65
2018-11-28T11:45:47.064Z,10.48
2018-11-28T11:48:15.001Z,10.38
2018-11-28T11:50:42.763Z,13.62
2018-11-28T11:53:11.309Z,16.93
2018-11-28T11:55:39.079Z,13.75
2018-11-28T11:58:07.160Z,16.62
2018-11-28T12:00:36.273Z,16.20
2018-11-28T12:03:08.831Z,12.70
2018-11-28T12:05:36.966Z,9.53
2018-11-28T12:08:05.762Z,10.90
2018-11-28T12:10:33.412Z,12.45
2018-11-28T12:13:01.254Z,11.78
2018-11-28T12:15:29.240Z,14.78
2018-11-28T12:17:57.177Z,12.37
2018-11-28T12:20:33.731Z,15.20
2018-11-28T12:23:01.395Z,17.50
2018-11-28T12:25:29.055Z,16.05
2018-11-28T12:27:57.927Z,20.00
2018-11-28T12:30:25.627Z,17.75
2018-11-28T12:32:53.458Z,17.15
2018-11-28T12:35:21.377Z,17.27
2018-11-28T12:37:49.412Z,16.20
2018-11-28T12:40:17.276Z,19.80
2018-11-28T12:42:48.052Z,18.23
2018-11-28T12:45:16.905Z,14.90
2018-11-28T12:47:45.512Z,19.30
2018-11-28T12:50:22.472Z,19.60
2018-11-28T12:52:51.164Z,17.30
2018-11-28T12:55:19.895Z,19.67
2018-11-28T12:57:47.818Z,17.15
2018-11-28T13:00:17.775Z,17.73
2018-11-28T13:02:52.648Z,18.57
2018-11-28T13:05:21.943Z,18.92
2018-11-28T13:07:49.740Z,18.87
2018-11-28T13:10:22.875Z,18.50
2018-11-28T13:12:50.968Z,17.25
2018-11-28T13:15:19.655Z,18.80
2018-11-28T13:17:47.416Z,14.65
2018-11-28T13:20:17.196Z,16.90
2018-11-28T13:22:45.865Z,16.75
2018-11-28T13:25:14.773Z,17.30
2018-11-28T13:27:42.789Z,19.25
2018-11-28T13:30:13.463Z,19.85
2018-11-28T13:32:41.871Z,18.42
2018-11-28T13:35:10.424Z,18.55
2018-11-28T13:37:38.178Z,16.97
2018-11-28T13:40:10.238Z,19.00
2018-11-28T13:42:37.978Z,18.37
2018-11-28T13:45:09.921Z,18.67
2018-11-28T13:47:37.785Z,17.82
2018-11-28T13:50:07.347Z,15.43
2018-11-28T13:52:35.188Z,18.82
2018-11-28T13:55:37.334Z,15.15
2018-11-28T13:57:31.591Z,17.62
2018-11-28T13:59:59.451Z,15.65
2018-11-28T14:02:27.307Z,16.80
2018-11-28T14:04:55.016Z,17.00
2018-11-28T14:07:23.480Z,14.83
2018-11-28T14:09:51.541Z,16.48
2018-11-28T14:12:19.329Z,17.55
2018-11-28T14:14:47.332Z,18.52
2018-11-28T14:17:15.127Z,18.12
2018-11-28T14:19:44.944Z,17.35
2018-11-28T14:22:12.839Z,17.57
2018-11-28T14:24:40.618Z,16.23
2018-11-28T14:27:08.271Z,19.12
2018-11-28T14:29:35.918Z,17.20
2018-11-28T14:32:03.686Z,16.40
2018-11-28T14:34:31.655Z,15.60
2018-11-28T14:37:00.067Z,17.07
2018-11-28T14:39:27.781Z,16.37
2018-11-28T14:41:55.447Z,15.35
2018-11-28T14:44:23.216Z,18.17
2018-11-28T14:46:51.012Z,17.62
2018-11-28T14:49:18.868Z,17.85
2018-11-28T14:51:46.630Z,15.50
2018-11-28T14:54:14.752Z,19.25
2018-11-28T14:56:42.472Z,20.15
2018-11-28T14:59:10.424Z,17.73
2018-11-28T15:01:38.341Z,19.00
2018-11-28T15:04:06.551Z,16.37
2018-11-28T15:06:56.954Z,18.67
2018-11-28T15:09:32.002Z,16.23
2018-11-28T15:11:59.754Z,17.62
2018-11-28T15:14:28.016Z,19.75
2018-11-28T15:16:55.733Z,16.27
2018-11-28T15:19:23.484Z,15.53
2018-11-28T15:21:51.170Z,17.30
2018-11-28T15:24:18.917Z,18.98
2018-11-28T15:26:46.797Z,16.27
2018-11-28T15:29:14.549Z,14.55
2018-11-28T15:31:42.332Z,15.38
2018-11-28T15:34:10.039Z,16.50
2018-11-28T15:36:37.987Z,16.40
2018-11-28T15:39:08.092Z,16.60
2018-11-28T15:41:36.460Z,14.25
2018-11-28T15:44:04.749Z,14.78
2018-11-28T15:46:33.884Z,15.85
2018-11-28T15:49:02.052Z,15.30
2018-11-28T15:51:29.854Z,15.65
2018-11-28T15:53:57.752Z,13.43
2018-11-28T15:56:25.404Z,15.28
2018-11-28T15:58:53.037Z,13.88
2018-11-28T16:01:20.729Z,15.63
2018-11-28T16:03:48.442Z,13.45
2018-11-28T16:06:16.079Z,15.05
2018-11-28T16:08:43.813Z,12.80
2018-11-28T16:11:14.052Z,14.80
2018-11-28T16:13:41.815Z,15.35
2018-11-28T16:16:09.589Z,15.65
2018-11-28T16:18:37.355Z,14.05
2018-11-28T16:21:05.663Z,12.35
2018-11-28T16:23:34.101Z,12.37
2018-11-28T16:26:01.817Z,13.95
2018-11-28T16:28:29.682Z,12.90
2018-11-28T16:30:57.413Z,12.25
2018-11-28T16:33:25.211Z,11.95
2018-11-28T16:35:53.715Z,12.75
2018-11-28T16:38:21.680Z,12.43
2018-11-28T16:40:54.529Z,12.15
2018-11-28T16:43:22.570Z,12.07
2018-11-28T16:45:50.367Z,12.35
2018-11-28T16:48:17.999Z,13.45
2018-11-28T16:50:46.004Z,11.55
2018-11-28T16:53:13.662Z,11.33
2018-11-28T16:55:42.652Z,13.38
2018-11-28T16:58:10.477Z,12.18
2018-11-28T17:00:40.502Z,13.53
2018-11-28T17:03:08.376Z,13.72
2018-11-28T17:05:36.668Z,12.45
2018-11-28T17:08:05.590Z,13.10
2018-11-28T17:13:07.802Z,13.25
2018-11-28T17:15:36.920Z,10.88
2018-11-28T17:18:05.483Z,12.03
2018-11-28T17:20:33.387Z,10.95
2018-11-28T17:23:01.198Z,11.50
2018-11-28T17:25:31.370Z,9.88
2018-11-28T17:27:59.691Z,12.95
2018-11-28T17:30:28.765Z,13.03
2018-11-28T17:32:56.940Z,12.00
2018-11-28T17:35:24.699Z,10.95
2018-11-28T17:37:52.874Z,12.53
2018-11-28T17:40:24.829Z,12.55
2018-11-28T17:42:53.659Z,11.85
2018-11-28T17:45:22.113Z,11.97
2018-11-28T17:47:50.486Z,12.13
2018-11-28T17:50:19.344Z,12.13
2018-11-28T17:52:52.912Z,11.75
2018-11-28T17:55:20.702Z,13.60
2018-11-28T17:57:48.846Z,12.50
2018-11-28T18:00:19.124Z,11.90
2018-11-28T18:02:47.135Z,12.35
2018-11-28T18:05:15.743Z,12.28
2018-11-28T18:07:43.728Z,13.83
2018-11-28T18:10:19.458Z,13.45
2018-11-28T18:12:58.870Z,14.50
2018-11-28T18:15:27.039Z,11.75
2018-11-28T18:17:55.927Z,12.88
2018-11-28T18:20:23.899Z,9.75
2018-11-28T18:22:51.707Z,10.18
2018-11-28T18:25:20.567Z,8.20
2018-11-28T18:27:48.403Z,11.33
2018-11-28T18:30:17.434Z,10.75
2018-11-28T18:32:45.109Z,12.60
2018-11-28T18:35:12.891Z,14.20
2018-11-28T18:37:41.941Z,13.43
2018-11-28T18:40:11.603Z,12.18
2018-11-28T18:42:40.053Z,15.10
2018-11-28T18:45:11.651Z,13.30
2018-11-28T18:47:39.437Z,13.13
2018-11-28T18:50:08.873Z,10.28
2018-11-28T18:52:36.803Z,10.80
2018-11-28T18:55:06.982Z,11.95
2018-11-28T18:57:34.741Z,13.88
2018-11-28T19:00:03.636Z,7.70
2018-11-28T19:02:31.576Z,11.20
2018-11-28T19:04:59.572Z,14.45
2018-11-28T19:07:27.595Z,12.75
2018-11-28T19:09:55.856Z,13.80
2018-11-28T19:12:23.720Z,13.55
2018-11-28T19:14:51.536Z,9.38
2018-11-28T19:17:20.381Z,12.68
2018-11-28T19:19:48.250Z,14.87
2018-11-28T19:22:16.854Z,14.20
2018-11-28T19:24:44.905Z,11.57
2018-11-28T19:27:12.713Z,14.00
2018-11-28T19:29:40.694Z,13.03
2018-11-28T19:32:08.410Z,12.68
2018-11-28T19:34:36.212Z,12.70
2018-11-28T19:37:04.235Z,11.20
2018-11-28T19:39:32.443Z,13.90
2018-11-28T19:42:00.678Z,13.32
2018-11-28T19:44:34.752Z,14.10
2018-11-28T19:47:02.674Z,11.45
2018-11-28T19:49:30.840Z,12.60
2018-11-28T19:51:59.765Z,11.95
2018-11-28T19:54:28.240Z,14.85
2018-11-28T19:56:56.020Z,14.03
2018-11-28T19:59:23.956Z,12.28
2018-11-28T20:01:51.744Z,13.13
2018-11-28T20:04:19.502Z,14.07
2018-11-28T20:06:47.429Z,13.93
2018-11-28T20:09:20.619Z,12.82
2018-11-28T20:11:48.633Z,13.10
2018-11-28T20:14:16.878Z,18.80
2018-11-28T20:16:44.645Z,10.55
2018-11-28T20:19:17.526Z,12.30
2018-11-28T20:21:41.193Z,11.60
2018-11-28T20:24:09.236Z,10.43
2018-11-28T20:26:37.794Z,11.10
2018-11-28T20:29:06.655Z,13.58
2018-11-28T20:31:34.967Z,9.75
2018-11-28T20:34:02.754Z,19.15
2018-11-28T20:36:30.529Z,11.25
2018-11-28T20:38:59.185Z,11.12
2018-11-28T20:41:27.412Z,12.28
2018-11-28T20:43:55.294Z,13.55
2018-11-28T20:46:23.309Z,14.03
2018-11-28T20:48:51.894Z,10.95
2018-11-28T20:51:19.649Z,11.65
2018-11-28T20:53:47.850Z,14.75
2018-11-28T20:56:15.848Z,13.93
2018-11-28T20:58:43.688Z,16.85
2018-11-28T21:01:11.822Z,11.68
2018-11-28T21:03:40.455Z,12.73
2018-11-28T21:06:08.463Z,8.50
2018-11-28T21:08:36.311Z,9.80
2018-11-28T21:11:04.949Z,8.75
2018-11-28T21:13:32.633Z,13.68
2018-11-28T21:16:06.960Z,14.10
2018-11-28T21:18:35.039Z,16.50
2018-11-28T21:21:03.591Z,11.55
2018-11-28T21:23:31.558Z,17.17
2018-11-28T21:25:59.651Z,15.65
2018-11-28T21:28:27.677Z,16.05
2018-11-28T21:30:55.571Z,12.45
2018-11-28T21:33:23.597Z,12.07
2018-11-28T21:35:52.218Z,16.60
2018-11-28T21:38:20.272Z,18.00
2018-11-28T21:40:48.306Z,13.85
2018-11-28T21:43:16.567Z,15.50
2018-11-28T21:45:44.438Z,15.95
2018-11-28T21:48:12.917Z,8.25
2018-11-28T21:50:40.981Z,12.75
2018-11-28T21:53:09.226Z,12.85
2018-11-28T21:55:37.447Z,13.20
2018-11-28T21:58:05.535Z,11.18
2018-11-28T22:00:34.968Z,13.00
2018-11-28T22:03:02.743Z,12.82
2018-11-28T22:05:30.392Z,9.70
2018-11-28T22:07:58.272Z,10.95
2018-11-28T22:10:26.606Z,13.50
2018-11-28T22:12:55.214Z,15.53
2018-11-28T22:15:23.022Z,14.68
2018-11-28T22:17:54.860Z,13.65
2018-11-28T22:20:23.808Z,11.40
2018-11-28T22:22:51.988Z,8.53
2018-11-28T22:25:23.867Z,10.48
2018-11-28T22:27:52.341Z,9.30
2018-11-28T22:30:27.889Z,10.05
2018-11-28T22:32:56.097Z,8.03
2018-11-28T22:35:23.924Z,9.00
2018-11-28T22:37:51.790Z,9.60
2018-11-28T22:40:21.907Z,10.65
2018-11-28T22:42:56.469Z,10.13
2018-11-28T22:45:26.632Z,12.33
2018-11-28T22:47:54.411Z,11.73
2018-11-28T22:50:22.459Z,12.55
2018-11-28T22:52:51.074Z,14.20
2018-11-28T22:55:18.971Z,12.82
2018-11-28T22:57:46.679Z,14.60
2018-11-28T23:00:22.894Z,13.38
2018-11-28T23:02:52.906Z,12.43
2018-11-28T23:05:21.839Z,10.95
2018-11-28T23:07:49.650Z,9.40
2018-11-28T23:10:17.978Z,13.20
2018-11-28T23:12:46.095Z,10.80
2018-11-28T23:15:14.248Z,14.80
2018-11-28T23:17:42.911Z,14.33
2018-11-28T23:20:10.880Z,11.40
2018-11-28T23:22:39.157Z,15.63
2018-11-28T23:25:10.163Z,10.32
2018-11-28T23:27:38.121Z,14.50
2018-11-28T23:30:11.043Z,11.65
2018-11-28T23:32:38.962Z,9.40
2018-11-28T23:35:08.338Z,14.35
2018-11-28T23:37:36.426Z,10.60
2018-11-28T23:40:09.531Z,8.65
2018-11-28T23:42:38.091Z,14.58
2018-11-28T23:45:08.043Z,10.93
2018-11-28T23:47:36.389Z,8.53
2018-11-28T23:50:07.333Z,13.32
2018-11-28T23:55:21.433Z,10.63
2018-11-28T23:57:50.007Z,11.50
